createdAt,value
2017-06-20T00:01:05.434Z,18.80
2017-06-20T00:03:33.856Z,18.70
2017-06-20T00:06:02.270Z,18.70
2017-06-20T00:08:30.711Z,18.70
2017-06-20T00:10:59.143Z,18.70
2017-06-20T00:13:27.600Z,18.70
2017-06-20T00:15:56.787Z,18.70
2017-06-20T00:18:25.218Z,18.80
2017-06-20T00:20:53.670Z,18.70
2017-06-20T00:23:22.859Z,18.70
2017-06-20T00:25:52.174Z,18.60
2017-06-20T00:28:21.362Z,18.60
2017-06-20T00:30:50.563Z,18.70
2017-06-20T00:33:19.772Z,18.70
2017-06-20T00:35:48.204Z,18.60
2017-06-20T00:38:16.657Z,18.60
2017-06-20T00:40:45.066Z,18.60
2017-06-20T00:43:13.498Z,18.60
2017-06-20T00:45:41.931Z,18.70
2017-06-20T00:48:10.374Z,18.50
2017-06-20T00:50:38.804Z,18.50
2017-06-20T00:53:07.255Z,18.50
2017-06-20T00:55:35.697Z,18.40
2017-06-20T00:58:04.881Z,18.30
2017-06-20T01:00:33.310Z,18.30
2017-06-20T01:03:01.731Z,18.30
2017-06-20T01:05:30.263Z,18.30
2017-06-20T01:07:58.687Z,18.20
2017-06-20T01:10:27.124Z,18.20
2017-06-20T01:12:55.592Z,18.30
2017-06-20T01:15:24.791Z,18.40
2017-06-20T01:17:53.998Z,18.30
2017-06-20T01:20:22.423Z,18.30
2017-06-20T01:22:50.957Z,18.30
2017-06-20T01:25:19.387Z,18.30
2017-06-20T01:27:47.834Z,18.20
2017-06-20T01:30:16.254Z,18.20
2017-06-20T01:32:44.696Z,18.30
2017-06-20T01:35:13.124Z,18.30
2017-06-20T01:37:41.579Z,18.30
2017-06-20T01:40:10.007Z,18.30
2017-06-20T01:42:39.118Z,18.20
2017-06-20T01:45:08.331Z,17.90
2017-06-20T01:47:36.867Z,17.80
2017-06-20T01:50:05.471Z,17.70
2017-06-20T01:52:34.687Z,17.70
2017-06-20T01:55:04.127Z,17.80
2017-06-20T01:57:32.679Z,17.70
2017-06-20T02:00:01.103Z,17.90
2017-06-20T02:02:29.559Z,17.90
2017-06-20T02:04:58.086Z,17.90
2017-06-20T02:07:26.580Z,17.90
2017-06-20T02:09:54.643Z,17.90
2017-06-20T02:12:23.065Z,18.00
2017-06-20T02:14:51.499Z,17.90
2017-06-20T02:17:19.930Z,17.80
2017-06-20T02:19:48.015Z,17.80
2017-06-20T02:22:16.486Z,17.90
2017-06-20T02:24:45.764Z,17.90
2017-06-20T02:27:14.947Z,17.90
2017-06-20T02:29:43.488Z,17.80
2017-06-20T02:32:11.902Z,17.90
2017-06-20T02:34:40.349Z,18.00
2017-06-20T02:37:08.786Z,17.90
2017-06-20T02:39:37.218Z,17.90
2017-06-20T02:42:05.679Z,17.80
2017-06-20T02:44:34.099Z,17.70
2017-06-20T02:47:02.545Z,17.60
2017-06-20T02:49:32.443Z,17.70
2017-06-20T02:52:01.825Z,17.70
2017-06-20T02:54:30.384Z,17.70
2017-06-20T02:56:58.814Z,17.70
2017-06-20T02:59:28.027Z,17.50
2017-06-20T03:01:56.469Z,17.50
2017-06-20T03:04:24.903Z,17.50
2017-06-20T03:06:53.350Z,17.50
2017-06-20T03:09:22.550Z,17.60
2017-06-20T03:11:51.769Z,17.60
2017-06-20T03:14:20.190Z,17.60
2017-06-20T03:16:48.606Z,17.50
2017-06-20T03:19:17.914Z,17.50
2017-06-20T03:21:47.138Z,17.50
2017-06-20T03:24:15.572Z,17.50
2017-06-20T03:26:43.983Z,17.50
2017-06-20T03:29:13.194Z,17.50
2017-06-20T03:31:41.615Z,17.40
2017-06-20T03:34:10.038Z,17.40
2017-06-20T03:36:39.229Z,17.30
2017-06-20T03:39:08.423Z,17.30
2017-06-20T03:41:36.867Z,17.20
2017-06-20T03:44:05.290Z,17.20
2017-06-20T03:46:34.514Z,17.20
2017-06-20T03:49:02.959Z,17.20
2017-06-20T03:51:31.387Z,17.20
2017-06-20T03:53:59.839Z,17.30
2017-06-20T03:56:29.027Z,17.20
2017-06-20T03:58:57.459Z,17.20
2017-06-20T04:01:26.149Z,17.30
2017-06-20T04:03:54.684Z,17.30
2017-06-20T04:06:23.907Z,17.30
2017-06-20T04:08:53.087Z,17.20
2017-06-20T04:11:22.297Z,17.20
2017-06-20T04:13:51.478Z,17.30
2017-06-20T04:16:19.926Z,17.30
2017-06-20T04:18:48.359Z,17.40
2017-06-20T04:21:23.067Z,17.30
2017-06-20T04:23:51.514Z,17.30
2017-06-20T04:26:19.983Z,17.30
2017-06-20T04:28:48.423Z,17.40
2017-06-20T04:31:17.818Z,17.70
2017-06-20T04:33:46.252Z,17.60
2017-06-20T04:36:14.683Z,17.80
2017-06-20T04:38:43.095Z,17.80
2017-06-20T04:41:11.707Z,17.90
2017-06-20T04:43:40.120Z,17.90
2017-06-20T04:46:08.544Z,18.00
2017-06-20T04:48:37.014Z,18.10
2017-06-20T04:51:06.191Z,18.40
2017-06-20T04:53:34.620Z,18.50
2017-06-20T04:56:03.062Z,18.50
2017-06-20T04:58:31.663Z,18.60
2017-06-20T05:01:00.143Z,18.80
2017-06-20T05:03:28.572Z,19.10
2017-06-20T05:05:57.008Z,19.20
2017-06-20T05:08:25.426Z,19.40
2017-06-20T05:10:53.847Z,19.60
2017-06-20T05:13:23.164Z,19.70
2017-06-20T05:15:52.366Z,19.90
2017-06-20T05:18:20.802Z,19.90
2017-06-20T05:20:49.312Z,19.90
2017-06-20T05:23:17.772Z,19.90
2017-06-20T05:25:46.218Z,19.80
2017-06-20T05:28:14.679Z,20.00
2017-06-20T05:30:43.164Z,20.10
2017-06-20T05:33:11.581Z,20.30
2017-06-20T05:35:40.027Z,20.50
2017-06-20T05:38:08.463Z,20.70
2017-06-20T05:40:36.914Z,20.80
2017-06-20T05:43:05.155Z,20.90
2017-06-20T05:45:34.407Z,21.00
2017-06-20T05:48:02.852Z,21.00
2017-06-20T05:50:31.266Z,21.20
2017-06-20T05:53:00.638Z,21.50
2017-06-20T05:55:29.079Z,21.40
2017-06-20T05:57:57.523Z,21.60
2017-06-20T06:00:25.758Z,21.70
2017-06-20T06:02:55.000Z,22.00
2017-06-20T06:05:23.462Z,21.90
2017-06-20T06:07:51.931Z,22.00
2017-06-20T06:10:20.371Z,22.10
2017-06-20T06:12:48.819Z,22.30
2017-06-20T06:15:17.342Z,22.40
2017-06-20T06:17:45.855Z,22.50
2017-06-20T06:20:14.303Z,22.60
2017-06-20T06:22:43.340Z,22.70
2017-06-20T06:25:11.844Z,22.80
2017-06-20T06:27:40.267Z,23.00
2017-06-20T06:30:08.723Z,23.00
2017-06-20T06:32:37.150Z,23.10
2017-06-20T06:35:05.610Z,23.20
2017-06-20T06:37:33.890Z,23.30
2017-06-20T06:40:02.339Z,23.40
2017-06-20T06:42:30.774Z,23.50
2017-06-20T06:44:59.218Z,23.60
2017-06-20T06:47:27.687Z,23.70
2017-06-20T06:49:56.107Z,23.90
2017-06-20T06:52:24.549Z,24.00
2017-06-20T06:54:52.963Z,24.00
2017-06-20T06:57:21.405Z,24.10
2017-06-20T06:59:49.923Z,24.20
2017-06-20T07:02:18.394Z,24.30
2017-06-20T07:04:46.832Z,24.30
2017-06-20T07:07:15.270Z,24.20
2017-06-20T07:09:43.713Z,24.30
2017-06-20T07:12:12.184Z,24.40
2017-06-20T07:14:40.624Z,24.50
2017-06-20T07:17:09.074Z,24.60
2017-06-20T07:19:38.200Z,24.70
2017-06-20T07:22:06.647Z,24.70
2017-06-20T07:24:35.076Z,24.70
2017-06-20T07:27:03.530Z,24.80
2017-06-20T07:29:31.991Z,24.90
2017-06-20T07:32:00.815Z,24.90
2017-06-20T07:34:30.027Z,25.10
2017-06-20T07:36:58.868Z,25.20
2017-06-20T07:39:28.063Z,25.20
2017-06-20T07:41:56.883Z,25.40
2017-06-20T07:44:26.195Z,25.50
2017-06-20T07:46:55.291Z,25.60
2017-06-20T07:49:26.137Z,25.90
2017-06-20T07:51:54.957Z,25.80
2017-06-20T07:54:23.386Z,25.90
2017-06-20T07:56:51.811Z,25.70
2017-06-20T07:59:21.010Z,25.70
2017-06-20T08:01:49.457Z,25.70
2017-06-20T08:04:18.078Z,25.70
2017-06-20T08:06:47.192Z,26.00
2017-06-20T08:09:15.627Z,26.30
2017-06-20T08:11:44.068Z,26.50
2017-06-20T08:14:12.490Z,26.50
2017-06-20T08:16:41.006Z,26.60
2017-06-20T08:19:09.435Z,26.70
2017-06-20T08:21:43.459Z,26.80
2017-06-20T08:24:11.878Z,27.70
2017-06-20T08:26:40.332Z,27.60
2017-06-20T08:29:08.847Z,27.80
2017-06-20T08:31:37.267Z,28.00
2017-06-20T08:34:05.723Z,28.00
2017-06-20T08:36:34.199Z,28.00
2017-06-20T08:39:02.432Z,28.10
2017-06-20T08:41:30.878Z,28.10
2017-06-20T08:43:59.299Z,28.10
2017-06-20T08:46:27.736Z,28.20
2017-06-20T08:48:56.292Z,28.30
2017-06-20T08:51:24.776Z,28.30
2017-06-20T08:53:53.958Z,28.30
2017-06-20T08:56:23.147Z,28.40
2017-06-20T08:58:51.586Z,28.60
2017-06-20T09:01:20.042Z,28.50
2017-06-20T09:03:48.519Z,28.60
2017-06-20T09:06:17.009Z,28.50
2017-06-20T09:08:45.427Z,28.50
2017-06-20T09:11:13.859Z,28.60
2017-06-20T09:13:43.063Z,28.40
2017-06-20T09:16:11.518Z,28.60
2017-06-20T09:18:40.038Z,28.60
2017-06-20T09:21:08.479Z,28.60
2017-06-20T09:23:36.912Z,28.70
2017-06-20T09:26:05.401Z,28.90
2017-06-20T09:28:33.830Z,28.90
2017-06-20T09:31:02.262Z,29.20
2017-06-20T09:33:30.711Z,29.10
2017-06-20T09:36:00.048Z,29.10
2017-06-20T09:38:28.503Z,29.20
2017-06-20T09:40:57.344Z,29.10
2017-06-20T09:43:26.212Z,29.20
2017-06-20T09:45:55.395Z,29.10
2017-06-20T09:48:24.592Z,29.30
2017-06-20T09:50:53.795Z,29.40
2017-06-20T09:53:22.452Z,29.40
2017-06-20T09:55:50.875Z,29.60
2017-06-20T09:58:19.710Z,29.70
2017-06-20T10:00:48.528Z,29.70
2017-06-20T10:03:17.365Z,29.50
2017-06-20T10:05:45.815Z,29.40
2017-06-20T10:08:14.651Z,29.50
2017-06-20T10:10:43.479Z,29.30
2017-06-20T10:13:12.681Z,29.70
2017-06-20T10:15:41.522Z,29.80
2017-06-20T10:18:10.724Z,30.10
2017-06-20T10:20:39.589Z,30.10
2017-06-20T10:23:08.431Z,30.40
2017-06-20T10:25:37.620Z,30.40
2017-06-20T10:28:06.058Z,30.50
2017-06-20T10:30:34.482Z,30.50
2017-06-20T10:33:03.695Z,30.20
2017-06-20T10:35:32.522Z,30.50
2017-06-20T10:38:01.732Z,30.40
2017-06-20T10:40:30.561Z,30.10
2017-06-20T10:42:59.759Z,30.20
2017-06-20T10:45:28.599Z,30.50
2017-06-20T10:47:57.787Z,30.70
2017-06-20T10:50:26.211Z,30.90
2017-06-20T10:52:54.663Z,30.20
2017-06-20T10:55:23.096Z,30.20
2017-06-20T10:57:51.914Z,30.20
2017-06-20T11:00:20.355Z,30.40
2017-06-20T11:02:49.182Z,30.80
2017-06-20T11:05:17.607Z,30.80
2017-06-20T11:07:46.055Z,31.00
2017-06-20T11:10:14.900Z,31.20
2017-06-20T11:12:43.339Z,31.00
2017-06-20T11:15:12.196Z,31.30
2017-06-20T11:17:41.030Z,32.70
2017-06-20T11:20:10.219Z,31.50
2017-06-20T11:22:39.060Z,31.00
2017-06-20T11:25:08.240Z,30.80
2017-06-20T11:27:37.079Z,31.00
2017-06-20T11:30:06.332Z,31.20
2017-06-20T11:32:35.160Z,31.40
2017-06-20T11:35:03.993Z,31.40
2017-06-20T11:37:32.485Z,31.40
2017-06-20T11:40:00.931Z,31.40
2017-06-20T11:42:29.371Z,31.10
2017-06-20T11:44:57.796Z,31.40
2017-06-20T11:47:26.644Z,31.80
2017-06-20T11:49:55.837Z,32.50
2017-06-20T11:52:24.663Z,32.60
2017-06-20T11:54:53.874Z,32.50
2017-06-20T11:57:23.772Z,32.20
2017-06-20T11:59:52.612Z,32.30
2017-06-20T12:02:21.801Z,32.40
2017-06-20T12:04:50.632Z,32.30
2017-06-20T12:07:19.823Z,32.30
2017-06-20T12:09:49.054Z,32.00
2017-06-20T12:12:18.303Z,31.80
2017-06-20T12:14:47.139Z,31.80
2017-06-20T12:17:16.335Z,31.80
2017-06-20T12:19:45.261Z,32.10
2017-06-20T12:22:14.101Z,32.40
2017-06-20T12:24:43.295Z,32.30
2017-06-20T12:27:12.132Z,32.50
2017-06-20T12:29:40.959Z,32.90
2017-06-20T12:32:10.166Z,33.10
2017-06-20T12:34:39.366Z,33.00
2017-06-20T12:37:08.256Z,32.40
2017-06-20T12:39:37.083Z,32.60
2017-06-20T12:42:06.288Z,32.40
2017-06-20T12:44:35.144Z,32.40
2017-06-20T12:47:04.357Z,32.40
2017-06-20T12:49:33.175Z,32.50
2017-06-20T12:52:02.007Z,32.60
2017-06-20T12:54:31.196Z,32.50
2017-06-20T12:57:00.037Z,32.40
2017-06-20T12:59:28.645Z,32.30
2017-06-20T13:01:57.463Z,32.00
2017-06-20T13:04:26.317Z,32.00
2017-06-20T13:06:55.616Z,31.90
2017-06-20T13:09:24.563Z,31.60
2017-06-20T13:11:53.438Z,31.60
2017-06-20T13:14:22.258Z,31.60
2017-06-20T13:16:51.467Z,32.40
2017-06-20T13:19:20.395Z,32.80
2017-06-20T13:21:49.595Z,33.00
2017-06-20T13:24:18.412Z,33.10
2017-06-20T13:26:47.633Z,33.20
2017-06-20T13:29:16.467Z,33.60
2017-06-20T13:31:45.672Z,34.00
2017-06-20T13:34:14.501Z,33.70
2017-06-20T13:36:43.707Z,33.20
2017-06-20T13:39:12.551Z,34.00
2017-06-20T13:41:41.774Z,34.10
2017-06-20T13:44:10.972Z,34.60
2017-06-20T13:46:39.783Z,34.80
2017-06-20T13:49:08.996Z,33.90
2017-06-20T13:51:37.806Z,32.70
2017-06-20T13:54:06.655Z,32.00
2017-06-20T13:56:35.847Z,32.20
2017-06-20T13:59:04.695Z,32.40
2017-06-20T14:01:33.937Z,33.10
2017-06-20T14:04:02.730Z,34.10
2017-06-20T14:06:31.943Z,34.10
2017-06-20T14:09:00.763Z,34.40
2017-06-20T14:11:29.193Z,35.40
2017-06-20T14:13:58.452Z,35.90
2017-06-20T14:16:27.296Z,35.80
2017-06-20T14:18:57.167Z,35.30
2017-06-20T14:21:26.371Z,35.10
2017-06-20T14:23:55.211Z,35.40
2017-06-20T14:26:24.028Z,34.90
2017-06-20T14:28:53.247Z,34.40
2017-06-20T14:31:22.111Z,34.80
2017-06-20T14:33:52.292Z,35.50
2017-06-20T14:36:22.391Z,35.90
2017-06-20T14:38:51.240Z,35.50
2017-06-20T14:41:20.503Z,35.70
2017-06-20T14:43:49.395Z,35.40
2017-06-20T14:46:18.266Z,34.50
2017-06-20T14:48:46.698Z,35.00
2017-06-20T14:51:15.919Z,34.60
2017-06-20T14:53:45.123Z,34.90
2017-06-20T14:56:13.558Z,35.20
2017-06-20T14:58:41.995Z,35.60
2017-06-20T15:01:10.251Z,36.10
2017-06-20T15:03:38.675Z,35.90
2017-06-20T15:06:07.533Z,35.80
2017-06-20T15:08:36.726Z,35.10
2017-06-20T15:11:05.936Z,35.20
2017-06-20T15:13:34.868Z,35.30
2017-06-20T15:16:03.680Z,34.70
2017-06-20T15:18:32.894Z,34.90
2017-06-20T15:21:01.719Z,35.10
2017-06-20T15:23:30.986Z,34.70
2017-06-20T15:26:00.195Z,35.20
2017-06-20T15:28:29.376Z,35.20
2017-06-20T15:30:58.207Z,34.50
2017-06-20T15:33:27.033Z,34.00
2017-06-20T15:35:56.247Z,33.60
2017-06-20T15:38:25.104Z,33.30
2017-06-20T15:40:53.923Z,33.00
2017-06-20T15:43:23.122Z,33.50
2017-06-20T15:45:52.324Z,33.30
2017-06-20T15:48:21.163Z,32.80
2017-06-20T15:50:49.979Z,32.20
2017-06-20T15:53:19.160Z,32.00
2017-06-20T15:55:48.363Z,31.90
2017-06-20T15:58:17.196Z,32.00
2017-06-20T16:00:46.412Z,32.10
2017-06-20T16:03:15.603Z,32.20
2017-06-20T16:05:44.805Z,32.30
2017-06-20T16:08:13.652Z,32.70
2017-06-20T16:10:42.507Z,33.30
2017-06-20T16:13:11.711Z,33.00
2017-06-20T16:15:40.572Z,32.60
2017-06-20T16:18:09.397Z,32.40
2017-06-20T16:20:38.670Z,32.10
2017-06-20T16:23:07.504Z,32.10
2017-06-20T16:25:36.551Z,31.90
2017-06-20T16:28:05.742Z,32.00
2017-06-20T16:30:34.593Z,31.70
2017-06-20T16:33:03.770Z,31.80
2017-06-20T16:35:32.609Z,31.90
2017-06-20T16:38:01.828Z,31.70
2017-06-20T16:40:31.040Z,31.60
2017-06-20T16:42:59.877Z,31.50
2017-06-20T16:45:29.064Z,31.80
2017-06-20T16:47:57.908Z,32.20
2017-06-20T16:50:26.731Z,32.40
2017-06-20T16:52:55.948Z,32.30
2017-06-20T16:55:24.802Z,32.10
2017-06-20T16:57:54.015Z,32.00
2017-06-20T17:00:22.879Z,31.80
2017-06-20T17:02:52.110Z,31.70
2017-06-20T17:05:21.076Z,31.60
2017-06-20T17:07:49.891Z,32.30
2017-06-20T17:10:18.747Z,33.20
2017-06-20T17:12:47.948Z,33.50
2017-06-20T17:15:16.813Z,33.60
2017-06-20T17:17:46.044Z,33.70
2017-06-20T17:20:14.864Z,33.90
2017-06-20T17:22:44.062Z,34.30
2017-06-20T17:25:12.935Z,34.30
2017-06-20T17:27:41.475Z,34.40
2017-06-20T17:30:10.288Z,34.40
2017-06-20T17:32:39.131Z,34.00
2017-06-20T17:35:07.963Z,34.00
2017-06-20T17:37:37.055Z,33.80
2017-06-20T17:40:06.264Z,33.80
2017-06-20T17:42:35.502Z,33.80
2017-06-20T17:45:04.351Z,34.00
2017-06-20T17:47:33.539Z,33.80
2017-06-20T17:50:02.353Z,33.60
2017-06-20T17:52:31.563Z,33.20
2017-06-20T17:55:00.427Z,33.30
2017-06-20T17:57:28.882Z,33.30
2017-06-20T17:59:57.732Z,32.90
2017-06-20T18:02:27.559Z,32.70
2017-06-20T18:04:56.761Z,31.90
2017-06-20T18:07:25.821Z,31.70
2017-06-20T18:09:55.036Z,31.50
2017-06-20T18:12:23.902Z,31.40
2017-06-20T18:14:53.115Z,31.10
2017-06-20T18:17:21.983Z,31.00
2017-06-20T18:19:50.799Z,30.90
2017-06-20T18:22:19.992Z,30.70
2017-06-20T18:24:49.215Z,30.50
2017-06-20T18:27:18.404Z,30.40
2017-06-20T18:29:47.235Z,30.40
2017-06-20T18:32:16.435Z,30.40
2017-06-20T18:34:45.310Z,30.30
2017-06-20T18:37:14.171Z,30.20
2017-06-20T18:39:43.383Z,30.20
2017-06-20T18:42:12.273Z,30.20
2017-06-20T18:44:41.484Z,30.10
2017-06-20T18:47:10.673Z,30.00
2017-06-20T18:49:39.624Z,29.80
2017-06-20T18:52:08.482Z,29.70
2017-06-20T18:54:36.936Z,29.60
2017-06-20T18:57:06.246Z,29.50
2017-06-20T18:59:34.729Z,29.50
2017-06-20T19:02:03.913Z,29.30
2017-06-20T19:04:33.059Z,29.20
2017-06-20T19:07:01.916Z,29.00
2017-06-20T19:09:30.769Z,28.90
2017-06-20T19:11:59.700Z,28.70
2017-06-20T19:14:28.555Z,28.60
2017-06-20T19:16:57.788Z,28.40
2017-06-20T19:19:26.661Z,28.20
2017-06-20T19:21:55.643Z,28.00
2017-06-20T19:24:24.478Z,27.70
2017-06-20T19:26:52.981Z,27.50
2017-06-20T19:29:21.403Z,27.30
2017-06-20T19:31:50.226Z,27.20
2017-06-20T19:34:19.419Z,27.00
2017-06-20T19:36:48.611Z,26.90
2017-06-20T19:39:17.499Z,26.70
2017-06-20T19:41:46.687Z,26.60
2017-06-20T19:44:15.559Z,26.50
2017-06-20T19:46:44.374Z,26.30
2017-06-20T19:49:13.567Z,26.20
2017-06-20T19:51:42.778Z,26.00
2017-06-20T19:54:12.020Z,25.90
2017-06-20T19:56:40.859Z,25.80
2017-06-20T19:59:10.079Z,25.60
2017-06-20T20:01:38.925Z,25.60
2017-06-20T20:04:07.761Z,25.60
2017-06-20T20:06:36.984Z,25.60
2017-06-20T20:09:05.143Z,25.60
2017-06-20T20:11:33.970Z,25.60
2017-06-20T20:14:02.823Z,25.60
2017-06-20T20:16:31.675Z,25.60
2017-06-20T20:19:00.512Z,25.60
2017-06-20T20:21:29.339Z,25.60
2017-06-20T20:23:58.670Z,25.50
2017-06-20T20:26:27.523Z,25.20
2017-06-20T20:28:56.356Z,25.30
2017-06-20T20:31:25.580Z,25.00
2017-06-20T20:33:54.408Z,24.80
2017-06-20T20:36:23.242Z,24.70
2017-06-20T20:38:52.451Z,24.50
2017-06-20T20:41:21.304Z,24.40
2017-06-20T20:43:50.129Z,24.40
2017-06-20T20:46:19.401Z,24.40
2017-06-20T20:48:47.915Z,24.50
2017-06-20T20:51:17.175Z,24.50
2017-06-20T20:53:46.032Z,24.50
2017-06-20T20:56:14.871Z,24.50
2017-06-20T20:58:44.068Z,24.50
2017-06-20T21:01:12.909Z,24.50
2017-06-20T21:03:41.748Z,24.40
2017-06-20T21:06:11.004Z,24.40
2017-06-20T21:08:39.855Z,24.10
2017-06-20T21:11:08.678Z,23.90
2017-06-20T21:13:37.576Z,23.80
2017-06-20T21:16:06.767Z,23.80
2017-06-20T21:18:35.627Z,23.70
2017-06-20T21:21:04.448Z,23.70
2017-06-20T21:23:33.652Z,23.70
2017-06-20T21:26:02.506Z,23.80
2017-06-20T21:28:31.324Z,23.90
2017-06-20T21:31:00.531Z,23.90
2017-06-20T21:33:29.363Z,23.90
2017-06-20T21:35:58.215Z,24.00
2017-06-20T21:38:27.408Z,24.00
2017-06-20T21:40:56.657Z,24.00
2017-06-20T21:43:25.187Z,23.80
2017-06-20T21:45:54.402Z,23.70
2017-06-20T21:48:23.613Z,23.60
2017-06-20T21:50:52.043Z,23.50
2017-06-20T21:53:20.490Z,23.70
2017-06-20T21:55:48.928Z,23.50
2017-06-20T21:58:17.363Z,23.50
2017-06-20T22:00:45.813Z,23.40
2017-06-20T22:03:15.123Z,23.30
2017-06-20T22:05:43.582Z,23.30
2017-06-20T22:08:12.067Z,23.40
2017-06-20T22:10:41.274Z,23.30
2017-06-20T22:13:10.579Z,23.20
2017-06-20T22:15:39.026Z,23.20
2017-06-20T22:18:07.465Z,23.20
2017-06-20T22:20:35.928Z,23.10
2017-06-20T22:23:04.376Z,23.10
2017-06-20T22:25:32.807Z,23.10
2017-06-20T22:28:01.218Z,22.90
2017-06-20T22:30:29.655Z,22.90
2017-06-20T22:32:58.104Z,22.80
2017-06-20T22:35:26.550Z,22.70
2017-06-20T22:37:54.995Z,22.80
2017-06-20T22:40:23.437Z,22.60
2017-06-20T22:42:51.863Z,22.40
2017-06-20T22:45:20.328Z,22.30
2017-06-20T22:47:49.539Z,22.20
2017-06-20T22:50:18.743Z,22.10
2017-06-20T22:52:47.166Z,22.10
2017-06-20T22:55:15.623Z,22.10
2017-06-20T22:57:44.051Z,22.10
2017-06-20T23:00:12.502Z,22.10
2017-06-20T23:02:40.943Z,22.00
2017-06-20T23:05:09.523Z,22.00
2017-06-20T23:07:38.730Z,21.60
2017-06-20T23:10:07.190Z,21.60
2017-06-20T23:12:35.690Z,21.60
2017-06-20T23:15:04.534Z,21.60
2017-06-20T23:17:32.978Z,21.50
2017-06-20T23:20:01.432Z,21.60
2017-06-20T23:22:29.931Z,21.30
2017-06-20T23:24:58.391Z,21.20
2017-06-20T23:27:27.027Z,21.20
2017-06-20T23:29:55.487Z,21.30
2017-06-20T23:32:24.787Z,21.40
2017-06-20T23:34:53.243Z,21.40
2017-06-20T23:37:21.696Z,21.30
2017-06-20T23:39:50.149Z,21.20
2017-06-20T23:42:18.595Z,21.10
2017-06-20T23:44:47.785Z,21.00
2017-06-20T23:47:16.226Z,20.90
2017-06-20T23:49:44.670Z,20.90
2017-06-20T23:52:13.099Z,20.80
2017-06-20T23:54:41.556Z,20.80
2017-06-20T23:57:09.989Z,20.80
2017-06-20T23:59:38.442Z,21.10
